Station: EBLB - 20/01/2018 12:55Z (il y a 11 minutes)
EBLB 201255Z AUTO 18007KT 1100 SN SCT004/// OVC012/// M00/M01 Q0999 AMB
Vent du 180º - 7 kt
Visibilité: 1100 m (neige)
Ciel 50% couvert à 400 pieds - Ciel couvert à 1200 pieds
Température: -00ºC - Point de rosée: -01ºC - QNH: 999 hPa
Code couleur militaire: AMB (conditions IMC)